Latest Weather Observations for Sydney Airport

IDN60901

Issued at 5:21 pm EST Tuesday 20 August 2019 (issued every 10 minutes, with the page automatically refreshed every 10 minutes)

About weather observations | Map of Sydney area stations | Latest observations for Sydney area | Other Formats
Station Details ID: 066037 Name: SYDNEY AIRPORT AMO Lat: -33.95 Lon: 151.17 Height: 6.0 m
Data from the previous 72 hours. | See also: Recent months at Sydney Airport
Date/Time
EST
Temp
°C
App
Temp
°C
Dew
Point
°C
Rel
Hum
%
Delta-T
°C
Wind Press
QNH
hPa
Press
MSL
hPa
Rain since
9am
mm
Dir  Spd
km/h
Gust
km/h
Spd
kts
Gust
kts
20/05:00pm 17.9 10.0 -1.9 26 8.2 W 30 41 16 22 1018.7 1018.7 0.0
20/04:30pm 18.6 9.0 -1.8 25 8.6 W 39 50 21 27 1018.7 1018.7 0.0
20/04:19pm 18.9 9.2 -2.1 24 8.8 W 39 59 21 32 1018.6 1018.6 0.0
20/04:00pm 19.6 9.3 -0.9 25 8.8 W 43 57 23 31 1018.5 1018.5 0.0
20/03:30pm 20.0 12.0 -2.3 22 9.4 W 30 43 16 23 1018.6 1018.6 0.0
20/03:00pm 21.1 13.6 -1.4 22 9.7 W 28 41 15 22 1018.9 1018.9 0.0
20/02:30pm 20.1 11.5 -2.3 22 9.4 SW 33 41 18 22 1018.9 1018.9 0.0
20/02:00pm 21.1 14.3 -2.0 21 9.9 WSW 24 33 13 18 1019.0 1019.0 0.0
20/01:30pm 20.8 14.0 -1.7 22 9.7 W 24 33 13 18 1019.5 1019.5 0.0
20/01:00pm 19.4 11.0 -2.2 23 9.0 W 32 39 17 21 1019.7 1019.7 0.0
20/12:30pm 19.5 11.7 -1.0 25 8.8 W 30 37 16 20 1020.3 1020.3 0.0
20/12:00pm 18.1 9.7 -1.2 27 8.1 W 33 44 18 24 1020.8 1020.8 0.0
20/11:30am 17.1 8.3 -1.5 28 7.8 W 35 50 19 27 1021.3 1021.3 0.0
20/11:00am 17.1 7.7 -0.1 31 7.4 W 39 52 21 28 1022.0 1022.0 0.0
20/10:30am 16.6 7.3 0.3 33 7.0 W 39 56 21 30 1022.2 1022.2 0.0
20/10:26am 16.0 7.4 0.2 34 6.8 W 35 56 19 30 1022.2 1022.2 0.0
20/10:00am 15.4 7.3 -0.4 34 6.6 W 32 44 17 24 1022.7 1022.7 0.0
20/09:30am 14.2 4.9 0.8 40 5.7 W 39 54 21 29 1023.0 1023.0 0.0
20/09:21am 13.4 4.8 0.1 40 5.5 W 35 54 19 29 1023.1 1023.1 0.0
20/09:00am 13.1 5.9 0.8 43 5.2 W 28 39 15 21 1023.3 1023.3 0.0
20/08:30am 11.7 5.6 0.5 46 4.6 W 22 32 12 17 1023.6 1023.6 0.0
20/08:00am 11.4 6.3 0.8 48 4.4 WNW 17 24 9 13 1023.4 1023.4 0.0
20/07:30am 10.5 5.0 0.8 51 4.0 WNW 19 26 10 14 1023.4 1023.4 0.0
20/07:00am 9.4 4.3 0.6 54 3.5 NW 17 22 9 12 1023.1 1023.1 0.0
20/06:30am 8.7 3.5 0.2 55 3.4 WNW 17 24 9 13 1023.2 1023.2 0.0
20/06:00am 9.0 2.9 0.5 55 3.4 WNW 22 26 12 14 1023.0 1023.0 0.0
20/05:30am 8.6 2.5 0.3 56 3.3 WNW 22 30 12 16 1022.8 1022.8 0.0
20/05:00am 8.6 2.8 -0.2 54 3.4 WNW 20 26 11 14 1022.6 1022.6 0.0
20/04:30am 8.6 2.0 -0.4 53 3.5 WNW 24 32 13 17 1022.6 1022.6 0.0
20/04:00am 8.7 2.1 -0.6 52 3.6 WNW 24 33 13 18 1022.8 1022.8 0.0
20/03:30am 8.6 3.7 -0.7 52 3.6 NW 15 19 8 10 1022.7 1022.7 0.0
20/03:00am 8.6 3.0 -0.2 54 3.4 WNW 19 26 10 14 1023.0 1023.0 0.0
20/02:30am 8.7 3.0 -0.6 52 3.6 WNW 19 24 10 13 1023.4 1023.4 0.0
20/02:00am 8.8 2.9 -1.0 50 3.8 W 20 26 11 14 1023.6 1023.6 0.0
20/01:30am 8.9 2.9 -1.2 49 3.9 WNW 20 30 11 16 1023.7 1023.7 0.0
20/01:00am 8.8 2.8 -1.6 48 3.9 WNW 20 28 11 15 1023.8 1023.8 0.0
20/12:30am 9.2 2.4 -1.5 47 4.1 W 24 33 13 18 1023.8 1023.8 0.0
20/12:00am 9.2 2.0 -1.8 46 4.2 W 26 33 14 18 1023.7 1023.7 0.0
 
Date/Time
EST
Temp
°C
App
Temp
°C
Dew
Point
°C
Rel
Hum
%
Delta-T
°C
Wind Press
QNH
hPa
Press
MSL
hPa
Rain since
9am
mm
Dir  Spd
km/h
Gust
km/h
Spd
kts
Gust
kts
19/11:30pm 9.7 2.1 -1.9 44 4.4 W 28 33 15 18 1023.5 1023.5 0.0
19/11:00pm 10.0 2.0 -2.6 41 4.7 W 30 37 16 20 1023.4 1023.4 0.0
19/10:30pm 10.0 2.0 -2.6 41 4.8 W 30 39 16 21 1023.2 1023.2 0.0
19/10:00pm 10.2 1.6 -2.4 41 4.8 W 33 41 18 22 1023.0 1023.0 0.0
19/09:30pm 10.4 2.7 -2.6 40 4.9 W 28 37 15 20 1022.5 1022.5 0.0
19/09:00pm 10.8 2.3 -3.3 37 5.3 WSW 32 44 17 24 1022.4 1022.4 0.0
19/08:30pm 11.0 2.0 -3.1 37 5.3 WSW 35 48 19 26 1022.0 1022.0 0.0
19/08:00pm 11.2 2.6 -2.6 38 5.3 W 33 50 18 27 1021.7 1021.7 0.0
19/07:52pm 11.2 3.2 -2.6 38 5.3 W 30 50 16 27 1021.6 1021.6 0.0
19/07:30pm 11.7 2.7 -2.5 37 5.5 W 35 46 19 25 1021.2 1021.2 0.0
19/07:04pm 11.5 2.5 -2.7 37 5.4 W 35 54 19 29 1020.9 1020.9 0.0
19/07:00pm 11.7 3.3 -2.5 37 5.5 W 32 39 17 21 1020.8 1020.8 0.0
19/06:30pm 11.9 2.1 -3.4 34 5.8 W 39 54 21 29 1020.3 1020.3 0.0
19/06:10pm 12.1 2.2 -4.1 32 6.1 W 39 57 21 31 1019.8 1019.8 0.0
19/06:00pm 12.3 3.2 -3.9 32 6.1 WSW 35 48 19 26 1019.7 1019.7 0.0
19/05:30pm 12.6 1.4 -3.6 32 6.2 WSW 46 57 25 31 1019.3 1019.3 0.0
19/05:00pm 13.7 2.8 -4.0 29 6.7 W 44 61 24 33 1018.5 1018.5 0.0
19/04:36pm 14.1 3.4 -4.6 27 7.1 W 43 61 23 33 1018.0 1018.0 0.0
19/04:30pm 14.3 4.7 -4.9 26 7.2 WSW 37 48 20 26 1017.9 1017.9 0.0
19/04:00pm 14.6 3.3 -4.7 26 7.3 WSW 46 61 25 33 1017.4 1017.4 0.0
19/03:30pm 15.3 3.9 -5.7 23 7.9 W 46 67 25 36 1016.8 1016.8 0.0
19/03:00pm 15.4 3.3 -5.0 24 7.7 W 50 63 27 34 1016.7 1016.7 0.0
19/02:30pm 15.5 3.0 -5.5 23 7.9 W 52 67 28 36 1016.5 1016.5 0.0
19/02:07pm 15.4 4.2 -3.5 27 7.4 W 46 65 25 35 1016.2 1016.2 0.0
19/02:00pm 16.1 3.7 -3.9 25 7.8 WSW 52 65 28 35 1016.0 1016.0 0.0
19/01:30pm 16.2 4.9 -4.4 24 8.0 W 46 65 25 35 1015.9 1015.9 0.0
19/01:21pm 17.3 6.6 -2.9 25 8.2 W 44 63 24 34 1015.7 1015.7 0.0
19/01:00pm 16.7 5.0 -4.5 23 8.2 W 48 59 26 32 1015.8 1015.8 0.0
19/12:30pm 15.8 5.0 -3.6 26 7.6 W 44 59 24 32 1015.6 1015.6 0.0
19/12:00pm 16.1 5.4 -2.4 28 7.5 W 44 57 24 31 1015.7 1015.7 0.0
19/11:30am 15.5 4.5 -2.4 29 7.2 W 46 57 25 31 1015.7 1015.7 0.0
19/11:00am 15.8 6.5 -2.2 29 7.3 W 37 57 20 31 1016.0 1016.0 0.0
19/10:30am 15.6 6.3 -1.9 30 7.1 W 37 48 20 26 1015.9 1015.9 0.0
19/10:00am 14.9 4.3 -2.1 31 6.8 W 44 56 24 30 1015.5 1015.5 0.0
19/09:33am 14.7 5.1 -1.4 33 6.6 WNW 39 59 21 32 1015.2 1015.2 0.0
19/09:30am 14.6 4.9 -2.3 31 6.8 WNW 39 50 21 27 1015.1 1015.1 0.0
19/09:00am 14.5 5.3 -1.6 33 6.5 WNW 37 50 20 27 1015.2 1015.2 0.0
19/08:30am 13.5 5.0 -1.6 35 6.1 W 33 46 18 25 1015.1 1015.1 0.0
19/08:00am 13.0 4.5 -2.1 35 6.0 WNW 33 44 18 24 1014.6 1014.6 0.0
19/07:30am 12.1 5.4 -1.1 40 5.3 WNW 24 37 13 20 1014.4 1014.4 0.0
19/07:00am 12.2 4.4 -0.6 41 5.2 WNW 30 37 16 20 1013.9 1013.9 0.0
19/06:30am 11.6 4.2 -0.5 43 4.9 WNW 28 39 15 21 1013.3 1013.3 0.0
19/06:00am 11.8 5.3 0.0 44 4.8 WNW 24 32 13 17 1012.9 1012.9 0.0
19/05:30am 12.1 3.9 -0.7 41 5.2 WNW 32 39 17 21 1012.5 1012.5 0.0
19/05:00am 12.3 3.6 -0.2 42 5.1 WNW 35 41 19 22 1012.1 1012.1 0.0
19/04:30am 12.2 5.7 0.6 45 4.8 WNW 24 32 13 17 1011.9 1011.9 0.0
19/04:00am 12.3 5.6 1.6 48 4.6 W 26 33 14 18 1011.4 1011.4 0.0
19/03:30am 12.9 4.8 1.3 45 4.9 WNW 33 43 18 23 1011.3 1011.3 0.0
19/03:00am 13.4 4.2 1.4 44 5.1 W 39 50 21 27 1011.3 1011.3 0.0
19/02:30am 13.7 5.9 2.0 45 5.1 W 32 46 17 25 1011.1 1011.1 0.0
19/02:00am 13.7 3.6 1.7 44 5.2 W 44 59 24 32 1011.1 1011.1 0.0
19/01:53am 13.9 3.9 1.9 44 5.2 W 44 63 24 34 1011.1 1011.1 0.0
19/01:30am 14.4 4.3 3.5 48 4.9 WSW 46 61 25 33 1011.2 1011.2 0.0
19/01:00am 15.7 7.2 5.0 49 5.1 W 39 54 21 29 1010.6 1010.6 0.0
19/12:30am 16.0 8.7 7.2 56 4.4 WSW 35 48 19 26 1010.3 1010.3 0.0
19/12:09am 15.3 11.3 10.5 73 2.5 WNW 22 56 12 30 1009.9 1009.9 0.0
19/12:08am 15.2 11.6 10.4 73 2.5 WNW 20 35 11 19 1009.8 1009.8 0.0
19/12:00am 15.3 13.3 10.1 71 2.7 NW 11 17 6 9 1009.2 1009.2 0.0
 
Date/Time
EST
Temp
°C
App
Temp
°C
Dew
Point
°C
Rel
Hum
%
Delta-T
°C
Wind Press
QNH
hPa
Press
MSL
hPa
Rain since
9am
mm
Dir  Spd
km/h
Gust
km/h
Spd
kts
Gust
kts
18/11:30pm 17.0 15.5 10.6 66 3.4 N 9 13 5 7 1008.6 1008.6 0.0
18/11:00pm 17.4 14.5 11.0 66 3.5 WNW 17 26 9 14 1009.0 1009.0 0.0
18/10:35pm 17.5 11.2 11.1 66 3.5 N 35 52 19 28 1009.4 1009.4 0.0
18/10:34pm 17.4 11.2 11.4 68 3.3 N 35 52 19 28 1009.4 1009.4 0.0
18/10:30pm 17.5 11.5 12.0 70 3.0 NNE 35 43 19 23 1007.5 1007.5 0.0
18/10:00pm 17.8 11.4 12.0 69 3.2 NNE 37 46 20 25 1006.9 1006.9 0.0
18/09:30pm 18.2 11.4 12.0 67 3.4 NE 39 48 21 26 1007.2 1007.2 0.0
18/09:00pm 18.1 11.6 12.8 71 3.0 NNE 39 50 21 27 1008.2 1008.2 0.0
18/08:30pm 18.2 10.8 12.9 71 3.0 NNE 44 59 24 32 1009.1 1009.1 0.0
18/08:14pm 18.2 10.9 12.9 71 3.0 NNE 43 61 23 33 1009.4 1009.4 0.0
18/08:00pm 18.5 11.2 13.4 72 2.9 NNE 44 56 24 30 1009.6 1009.6 0.0
18/07:30pm 18.5 10.2 13.8 74 2.7 NNE 50 72 27 39 1009.8 1009.8 0.0
18/07:19pm 18.4 10.6 14.1 76 2.5 NNE 48 70 26 38 1010.2 1010.2 0.0
18/07:00pm 18.5 11.0 14.0 75 2.6 NE 46 61 25 33 1010.1 1010.1 0.0
18/06:30pm 18.6 11.7 14.5 77 2.4 NE 44 56 24 30 1010.5 1010.5 0.0
18/06:00pm 18.5 12.5 14.4 77 2.4 NNE 39 52 21 28 1010.8 1010.8 0.0
18/05:40pm 18.9 13.3 14.4 75 2.6 NNE 37 56 20 30 1011.4 1011.4 0.0
18/05:30pm 18.9 12.5 14.4 75 2.6 NE 41 54 22 29 1011.4 1011.4 0.0
18/05:00pm 19.0 12.6 14.3 74 2.7 NE 41 54 22 29 1011.4 1011.4 0.0
18/04:30pm 19.2 12.2 13.6 70 3.2 NE 43 56 23 30 1011.5 1011.5 0.0
18/04:00pm 20.1 13.1 13.8 67 3.6 NE 43 56 23 30 1011.7 1011.7 0.0
18/03:30pm 20.2 13.6 13.6 66 3.8 NE 41 54 22 29 1012.1 1012.1 0.0
18/03:00pm 20.1 13.6 12.8 63 4.1 NE 39 48 21 26 1012.7 1012.7 0.0
18/02:30pm 20.3 13.9 12.0 59 4.6 NE 37 48 20 26 1013.3 1013.3 0.0
18/02:00pm 20.4 14.3 11.9 58 4.7 NE 35 48 19 26 1013.9 1013.9 0.0
18/01:30pm 21.2 15.7 11.8 55 5.2 NE 32 39 17 21 1014.5 1014.5 0.0
18/01:00pm 20.5 14.1 10.6 53 5.4 NNE 35 41 19 22 1015.2 1015.2 0.0
18/12:30pm 20.1 14.9 11.6 58 4.7 NE 30 39 16 21 1016.1 1016.1 0.0
18/12:00pm 20.2 14.7 11.7 58 4.7 NNE 32 41 17 22 1016.8 1016.8 0.0
18/11:30am 19.5 14.7 10.2 55 5.0 NNE 26 35 14 19 1017.6 1017.6 0.0
18/11:00am 20.3 16.6 11.5 57 4.9 NNE 22 30 12 16 1018.2 1018.2 0.0
18/10:30am 18.1 15.5 9.2 56 4.6 N 13 17 7 9 1018.9 1018.9 0.0
18/10:00am 17.5 15.2 8.9 57 4.4 NW 11 17 6 9 1019.3 1019.3 0.0
18/09:30am 15.9 13.5 8.6 62 3.7 NW 11 13 6 7 1019.6 1019.6 0.0
18/09:00am 14.5 12.0 8.0 65 3.2 NW 11 15 6 8 1020.0 1020.0 0.0
18/08:30am 12.5 9.8 7.4 71 2.5 NW 11 15 6 8 1020.3 1020.3 0.0
18/08:00am 11.7 8.2 7.2 74 2.2 NW 15 19 8 10 1020.2 1020.2 0.0
18/07:30am 11.0 8.0 7.5 79 1.7 NW 13 17 7 9 1020.3 1020.3 0.0
18/07:00am 9.7 6.5 7.0 83 1.3 NW 13 15 7 8 1020.3 1020.3 0.0
18/06:30am 9.5 6.4 7.3 86 1.0 NW 13 22 7 12 1020.5 1020.5 0.0
18/06:00am 9.3 6.2 7.1 86 1.0 NW 13 17 7 9 1020.1 1020.1 0.0
18/05:30am 9.7 6.7 7.5 86 1.0 NW 13 15 7 8 1020.0 1020.0 0.0
18/05:00am 9.6 6.5 7.2 85 1.1 NW 13 17 7 9 1020.1 1020.1 0.0
18/04:30am 9.3 6.9 7.1 86 1.0 NNW 9 11 5 6 1020.3 1020.3 0.0
18/04:00am 9.7 7.4 7.3 85 1.1 NW 9 13 5 7 1020.3 1020.3 0.0
18/03:30am 10.4 7.7 7.5 82 1.4 NNW 11 13 6 7 1020.2 1020.2 0.0
18/03:00am 10.2 7.9 7.3 82 1.4 NNW 9 11 5 6 1020.4 1020.4 0.0
18/02:30am 10.9 8.4 8.0 82 1.4 NW 11 15 6 8 1020.8 1020.8 0.0
18/02:00am 10.9 7.9 7.8 81 1.5 NNW 13 15 7 8 1021.0 1021.0 0.0
18/01:30am 11.0 8.0 7.9 81 1.5 N 13 15 7 8 1021.3 1021.3 0.0
18/01:00am 11.4 9.3 8.1 80 1.6 NNW 9 11 5 6 1021.5 1021.5 0.0
18/12:30am 11.7 9.2 8.2 79 1.7 NW 11 13 6 7 1021.6 1021.6 0.0
18/12:00am 12.2 9.4 8.5 78 1.8 NNW 13 13 7 7 1021.5 1021.5 0.0
 
Date/Time
EST
Temp
°C
App
Temp
°C
Dew
Point
°C
Rel
Hum
%
Delta-T
°C
Wind Press
QNH
hPa
Press
MSL
hPa
Rain since
9am
mm
Dir  Spd
km/h
Gust
km/h
Spd
kts
Gust
kts
17/11:30pm 12.3 10.2 8.2 76 2.0 NNW 9 11 5 6 1021.4 1021.4 0.0
17/11:00pm 12.4 8.9 8.9 79 1.7 WNW 17 19 9 10 1021.8 1021.8 0.0
17/10:30pm 13.3 10.7 9.5 78 1.9 NW 13 19 7 10 1021.8 1021.8 0.0
17/10:00pm 13.7 12.1 10.1 79 1.9 W 9 13 5 7 1021.4 1021.4 0.0
17/09:30pm 13.7 12.1 10.1 79 1.9 SE 9 13 5 7 1021.4 1021.4 0.0
17/09:00pm 13.7 11.1 9.4 75 2.2 ESE 13 15 7 8 1021.2 1021.2 0.0
17/08:30pm 14.4 11.3 10.4 77 2.1 SE 17 20 9 11 1021.0 1021.0 0.0
17/08:00pm 14.4 11.4 10.6 78 2.0 SE 17 19 9 10 1021.4 1021.4 0.0
17/07:30pm 14.9 13.4 10.5 75 2.3 SSE 9 9 5 5 1021.2 1021.2 0.0
17/07:00pm 14.8 12.3 9.6 71 2.7 SSE 13 15 7 8 1020.8 1020.8 0.0
17/06:30pm 15.7 13.2 9.8 68 3.1 SSE 13 13 7 7 1020.7 1020.7 0.0
17/06:00pm 15.4 12.5 9.7 69 2.9 SSE 15 17 8 9 1020.5 1020.5 0.0
17/05:30pm 15.6 12.6 9.1 65 3.3 SSE 15 19 8 10 1020.1 1020.1 0.0

Latest Capital City Observations: Canberra | Sydney | Melbourne | Brisbane | Adelaide | Perth | Hobart | Darwin

Other formats

Comma delimited format used in spreadsheet applications
http://www.bom.gov.au/fwo/IDN60901/IDN60901.94767.axf

JavaScript Object Notation format (JSON) in row-major order
http://www.bom.gov.au/fwo/IDN60901/IDN60901.94767.json

Data quality

Most of these data are generated automatically and are frequently updated. Quality checks on data are not normally performed. It is possible for incorrect values to appear. Refer to information at About Latest Weather Observations and please check the disclaimer before using these data.